Time;durP1;ratioP1;P1;durP2;ratioP2;P2;SDS_P1;SDS_P2;PMS_P1;PMS_P2;Temp;Humidity;BMP_temperature;BMP_pressure;BME280_temperature;BME280_humidity;BME280_pressure;Samples;Min_cycle;Max_cycle;Signal;HPM_P1;HPM_P2
2023/06/22 00:02:01;;;;;;;6.38;3.80;;;;;;;;;;5095608;28;20058;-29
2023/06/22 00:04:27;;;;;;;4.80;3.75;;;;;;;;;;5095579;28;20048;-31
2023/06/22 00:06:53;;;;;;;3.65;3.35;;;;;;;;;;5095632;28;20024;-28
2023/06/22 00:09:20;;;;;;;5.05;4.35;;;;;;;;;;5095547;28;20027;-31
2023/06/22 00:11:46;;;;;;;3.72;3.42;;;;;;;;;;5095641;28;20020;-26
2023/06/22 00:14:12;;;;;;;4.75;4.35;;;;;;;;;;5095510;28;20052;-29
2023/06/22 00:16:38;;;;;;;4.05;3.67;;;;;;;;;;5095469;28;20039;-28
2023/06/22 00:19:05;;;;;;;5.35;4.43;;;;;;;;;;5095468;28;20024;-32
2023/06/22 00:21:31;;;;;;;5.57;3.53;;;;;;;;;;5095658;28;20028;-27
2023/06/22 00:23:57;;;;;;;4.70;3.72;;;;;;;;;;5095317;28;20039;-31
2023/06/22 00:26:24;;;;;;;4.32;3.92;;;;;;;;;;5095586;28;20485;-30
2023/06/22 00:28:50;;;;;;;3.80;3.50;;;;;;;;;;5094368;28;20024;-32
2023/06/22 00:31:16;;;;;;;6.07;3.88;;;;;;;;;;5095525;28;20020;-31
2023/06/22 00:33:42;;;;;;;4.20;3.90;;;;;;;;;;5095188;28;20431;-29
2023/06/22 00:36:12;;;;;;;4.60;4.15;;;;;;;;;;5095452;28;20021;-31
2023/06/22 00:38:40;;;;;;;4.80;4.40;;;;;;;;;;5095635;28;20026;-29
2023/06/22 00:41:06;;;;;;;7.90;3.95;;;;;;;;;;5095110;28;20258;-30
2023/06/22 00:43:32;;;;;;;3.78;3.47;;;;;;;;;;5095256;28;20020;-28
2023/06/22 00:45:58;;;;;;;4.75;4.22;;;;;;;;;;5095294;28;20031;-29
2023/06/22 00:48:25;;;;;;;4.65;3.38;;;;;;;;;;5094920;28;20030;-27
2023/06/22 00:50:53;;;;;;;3.33;3.03;;;;;;;;;;5094893;28;20107;-30
2023/06/22 00:53:20;;;;;;;4.47;3.83;;;;;;;;;;5095080;28;20148;-31
2023/06/22 00:55:52;;;;;;;3.80;3.35;;;;;;;;;;5095502;28;20051;-29
2023/06/22 00:58:21;;;;;;;4.50;3.53;;;;;;;;;;5095454;28;20048;-28
2023/06/22 01:00:48;;;;;;;6.53;3.70;;;;;;;;;;5095638;28;20074;-29
2023/06/22 01:03:16;;;;;;;8.40;3.80;;;;;;;;;;5094513;28;20078;-29
2023/06/22 01:05:46;;;;;;;4.78;3.10;;;;;;;;;;5095046;28;20511;-30
2023/06/22 01:08:21;;;;;;;3.90;3.60;;;;;;;;;;5095256;28;20039;-30
2023/06/22 01:10:47;;;;;;;4.05;3.58;;;;;;;;;;5095018;28;20066;-30
2023/06/22 01:13:22;;;;;;;4.75;3.30;;;;;;;;;;5094686;28;20074;-30
2023/06/22 01:15:56;;;;;;;3.67;3.42;;;;;;;;;;5094998;28;20327;-28
2023/06/22 01:18:25;;;;;;;3.30;3.10;;;;;;;;;;5094724;28;20032;-32
2023/06/22 01:20:52;;;;;;;5.18;4.40;;;;;;;;;;5094675;28;20020;-29
2023/06/22 01:23:38;;;;;;;5.82;3.35;;;;;;;;;;5094583;28;20028;-31
2023/06/22 01:26:13;;;;;;;4.88;3.33;;;;;;;;;;5095147;28;20042;-30
2023/06/22 01:28:46;;;;;;;3.85;3.50;;;;;;;;;;5094757;28;20058;-27
2023/06/22 01:31:14;;;;;;;3.45;3.25;;;;;;;;;;5094471;28;20048;-30
2023/06/22 01:33:42;;;;;;;3.75;3.22;;;;;;;;;;5094391;28;20152;-31
2023/06/22 01:36:09;;;;;;;3.67;3.38;;;;;;;;;;5094501;28;20020;-32
2023/06/22 01:38:36;;;;;;;4.10;3.80;;;;;;;;;;5094472;28;20032;-32
2023/06/22 01:41:03;;;;;;;4.90;3.40;;;;;;;;;;5097655;28;20405;-32
2023/06/22 01:43:29;;;;;;;3.53;3.25;;;;;;;;;;5098434;28;20358;-26
2023/06/22 01:45:56;;;;;;;3.70;3.40;;;;;;;;;;5098683;28;20358;-29
2023/06/22 01:48:23;;;;;;;4.07;3.20;;;;;;;;;;5098300;28;20515;-29
2023/06/22 01:50:49;;;;;;;3.60;3.40;;;;;;;;;;5098542;28;20051;-30
2023/06/22 01:53:15;;;;;;;3.25;3.05;;;;;;;;;;5098176;28;20024;-30
2023/06/22 01:55:41;;;;;;;3.88;3.58;;;;;;;;;;5098502;28;20121;-30
2023/06/22 01:58:07;;;;;;;6.32;3.50;;;;;;;;;;5098211;28;20073;-30
2023/06/22 02:00:36;;;;;;;3.63;3.33;;;;;;;;;;5098383;28;20074;-32
2023/06/22 02:03:06;;;;;;;4.85;4.07;;;;;;;;;;5079962;28;20530;-31
2023/06/22 02:05:34;;;;;;;3.47;3.28;;;;;;;;;;5098047;28;20036;-29
2023/06/22 02:08:08;;;;;;;4.82;3.20;;;;;;;;;;5098164;28;20032;-31
2023/06/22 02:10:36;;;;;;;3.75;3.47;;;;;;;;;;5097965;28;20118;-30
2023/06/22 02:13:03;;;;;;;3.22;3.03;;;;;;;;;;5097950;28;20097;-30
2023/06/22 02:15:31;;;;;;;3.28;3.05;;;;;;;;;;5098054;28;20044;-29
2023/06/22 02:17:57;;;;;;;3.20;2.90;;;;;;;;;;5097788;28;20036;-31
2023/06/22 02:20:24;;;;;;;3.78;3.58;;;;;;;;;;5097757;28;20028;-28
2023/06/22 02:22:50;;;;;;;4.40;3.30;;;;;;;;;;5097992;28;20052;-33
2023/06/22 02:25:16;;;;;;;3.53;3.33;;;;;;;;;;5097683;28;20020;-29
2023/06/22 02:27:43;;;;;;;3.55;3.25;;;;;;;;;;5097600;28;20440;-30
2023/06/22 02:30:09;;;;;;;3.67;3.05;;;;;;;;;;5097575;28;20032;-28
2023/06/22 02:32:36;;;;;;;3.97;3.30;;;;;;;;;;5097703;28;20085;-29
2023/06/22 02:35:06;;;;;;;3.20;3.00;;;;;;;;;;5098001;28;20427;-29
2023/06/22 02:37:32;;;;;;;3.45;3.15;;;;;;;;;;5097751;28;20028;-31
2023/06/22 02:39:58;;;;;;;3.67;3.38;;;;;;;;;;5097659;28;20042;-28
2023/06/22 02:42:24;;;;;;;3.38;3.08;;;;;;;;;;5097272;28;20093;-32
2023/06/22 02:44:50;;;;;;;5.60;4.32;;;;;;;;;;5097544;28;20073;-30
2023/06/22 02:47:17;;;;;;;3.55;3.25;;;;;;;;;;5097517;28;20042;-28
2023/06/22 02:49:45;;;;;;;4.15;3.60;;;;;;;;;;5097419;28;20036;-30
2023/06/22 02:52:11;;;;;;;3.78;3.45;;;;;;;;;;5096195;28;20085;-30
2023/06/22 02:54:38;;;;;;;4.07;3.20;;;;;;;;;;5097139;28;20328;-31
2023/06/22 02:57:04;;;;;;;3.42;3.20;;;;;;;;;;5097295;28;20043;-28
2023/06/22 02:59:30;;;;;;;3.17;2.97;;;;;;;;;;5097274;28;20104;-31
2023/06/22 03:01:56;;;;;;;3.58;3.33;;;;;;;;;;5097663;28;20067;-31
2023/06/22 03:04:22;;;;;;;3.35;3.05;;;;;;;;;;5096866;28;20044;-26
2023/06/22 03:06:50;;;;;;;3.35;3.05;;;;;;;;;;5097161;28;20028;-33
2023/06/22 03:09:17;;;;;;;3.33;3.13;;;;;;;;;;5097082;28;20291;-32
2023/06/22 03:11:43;;;;;;;3.38;3.15;;;;;;;;;;5097082;28;20017;-30
2023/06/22 03:14:09;;;;;;;3.15;2.85;;;;;;;;;;5096737;28;20028;-32
2023/06/22 03:16:36;;;;;;;3.35;3.10;;;;;;;;;;5096734;28;20023;-28
2023/06/22 03:19:02;;;;;;;3.20;2.90;;;;;;;;;;5096893;28;20024;-31
2023/06/22 03:21:29;;;;;;;3.25;3.05;;;;;;;;;;5096845;28;20056;-32
2023/06/22 03:23:55;;;;;;;2.65;2.45;;;;;;;;;;5096494;28;20098;-28
2023/06/22 03:26:23;;;;;;;3.30;3.10;;;;;;;;;;5097025;28;20020;-29
2023/06/22 03:28:49;;;;;;;3.42;3.15;;;;;;;;;;5096696;28;20347;-30
2023/06/22 03:31:15;;;;;;;2.78;2.58;;;;;;;;;;5096322;28;20103;-31
2023/06/22 03:33:41;;;;;;;3.28;3.08;;;;;;;;;;5096516;28;20099;-28
2023/06/22 03:36:08;;;;;;;3.28;3.08;;;;;;;;;;5078462;28;20035;-32
2023/06/22 03:38:34;;;;;;;3.70;3.40;;;;;;;;;;5096490;28;20103;-29
2023/06/22 03:41:00;;;;;;;3.50;3.30;;;;;;;;;;5078655;28;20065;-27
2023/06/22 03:43:26;;;;;;;3.38;3.13;;;;;;;;;;5096089;28;20034;-30
2023/06/22 03:45:53;;;;;;;3.63;3.22;;;;;;;;;;5096607;28;20023;-29
2023/06/22 03:48:19;;;;;;;2.97;2.80;;;;;;;;;;5095909;28;20055;-28
2023/06/22 03:50:45;;;;;;;3.35;3.10;;;;;;;;;;5078441;28;20107;-28
2023/06/22 03:53:13;;;;;;;4.28;3.13;;;;;;;;;;5095854;28;20451;-32
2023/06/22 03:55:49;;;;;;;3.58;3.28;;;;;;;;;;5078713;28;20024;-31
2023/06/22 03:58:16;;;;;;;3.20;3.00;;;;;;;;;;5078014;28;20111;-29
2023/06/22 04:00:42;;;;;;;3.78;3.53;;;;;;;;;;5095799;28;20024;-30
2023/06/22 04:03:08;;;;;;;3.15;2.95;;;;;;;;;;5095520;28;20382;-30
2023/06/22 04:05:34;;;;;;;5.25;3.35;;;;;;;;;;5095676;28;20070;-32
2023/06/22 04:08:00;;;;;;;3.38;3.08;;;;;;;;;;5095737;28;20049;-28
2023/06/22 04:10:26;;;;;;;3.63;2.60;;;;;;;;;;5077761;28;20020;-30
2023/06/22 04:12:53;;;;;;;6.70;3.17;;;;;;;;;;5095363;28;20024;-28
2023/06/22 04:15:19;;;;;;;2.90;2.70;;;;;;;;;;5095564;28;20123;-31
2023/06/22 04:17:45;;;;;;;3.35;3.05;;;;;;;;;;5095482;28;20035;-29
2023/06/22 04:20:11;;;;;;;3.90;3.60;;;;;;;;;;5095434;28;20024;-28
2023/06/22 04:22:37;;;;;;;3.13;2.92;;;;;;;;;;5095236;28;20024;-30
2023/06/22 04:25:04;;;;;;;3.70;3.40;;;;;;;;;;5095395;28;20347;-28
2023/06/22 04:27:30;;;;;;;3.90;3.55;;;;;;;;;;5095408;28;20335;-30
2023/06/22 04:29:56;;;;;;;4.00;3.70;;;;;;;;;;5094911;28;20032;-30
2023/06/22 04:32:22;;;;;;;4.40;4.00;;;;;;;;;;5095079;28;20020;-30
2023/06/22 04:34:49;;;;;;;3.20;2.85;;;;;;;;;;5095135;28;20043;-27
2023/06/22 04:37:15;;;;;;;3.38;3.08;;;;;;;;;;5095132;28;20024;-31
2023/06/22 04:39:42;;;;;;;4.15;3.22;;;;;;;;;;5094691;28;20016;-29
2023/06/22 04:42:08;;;;;;;3.97;3.17;;;;;;;;;;5094443;28;20043;-30
2023/06/22 04:44:35;;;;;;;3.55;3.30;;;;;;;;;;5094573;28;20024;-30
2023/06/22 04:47:03;;;;;;;3.45;3.20;;;;;;;;;;5094551;28;20028;-30
2023/06/22 04:49:33;;;;;;;4.43;4.00;;;;;;;;;;5094979;28;20098;-32
2023/06/22 04:52:03;;;;;;;6.63;3.70;;;;;;;;;;5094736;28;20020;-32
2023/06/22 04:54:32;;;;;;;11.07;3.83;;;;;;;;;;5094890;28;20389;-29
2023/06/22 04:56:59;;;;;;;4.13;3.72;;;;;;;;;;5095010;28;20043;-31
2023/06/22 04:59:27;;;;;;;4.55;3.13;;;;;;;;;;5095156;28;20031;-32
2023/06/22 05:01:54;;;;;;;4.03;3.67;;;;;;;;;;5076734;28;20107;-31
2023/06/22 05:04:20;;;;;;;5.95;3.33;;;;;;;;;;5094502;28;20043;-28
2023/06/22 05:06:46;;;;;;;5.45;3.60;;;;;;;;;;5094783;28;20401;-29
2023/06/22 05:09:12;;;;;;;3.53;3.13;;;;;;;;;;5094687;28;20346;-29
2023/06/22 05:11:38;;;;;;;3.40;3.10;;;;;;;;;;5095008;28;20034;-31
2023/06/22 05:14:04;;;;;;;8.88;3.03;;;;;;;;;;5094984;28;20055;-32
2023/06/22 05:16:31;;;;;;;5.57;3.03;;;;;;;;;;5101477;28;20017;-30
2023/06/22 05:18:57;;;;;;;2.90;2.63;;;;;;;;;;5101295;28;20039;-32
2023/06/22 05:21:24;;;;;;;3.97;3.58;;;;;;;;;;5101291;28;20035;-27
2023/06/22 05:23:51;;;;;;;3.72;3.42;;;;;;;;;;5101025;28;20073;-30
2023/06/22 05:26:18;;;;;;;4.05;3.40;;;;;;;;;;5083423;28;20396;-28
2023/06/22 05:28:47;;;;;;;6.43;4.22;;;;;;;;;;5100923;28;20468;-29
2023/06/22 05:31:16;;;;;;;3.95;2.92;;;;;;;;;;5101040;28;20094;-31
2023/06/22 05:33:43;;;;;;;5.78;4.05;;;;;;;;;;5101209;28;20096;-31
2023/06/22 05:36:10;;;;;;;5.53;3.70;;;;;;;;;;5101539;28;20332;-30
2023/06/22 05:38:36;;;;;;;4.70;3.25;;;;;;;;;;5101133;28;20050;-27
2023/06/22 05:41:02;;;;;;;3.55;3.25;;;;;;;;;;5101599;28;20031;-29
2023/06/22 05:43:29;;;;;;;3.55;3.25;;;;;;;;;;5100863;28;20024;-31
2023/06/22 05:45:55;;;;;;;6.28;4.10;;;;;;;;;;5100873;28;20042;-30
2023/06/22 05:48:21;;;;;;;7.43;3.30;;;;;;;;;;5101060;28;20034;-29
2023/06/22 05:50:47;;;;;;;5.30;3.47;;;;;;;;;;5083062;28;20035;-32
2023/06/22 05:53:13;;;;;;;8.38;3.70;;;;;;;;;;5101000;28;20020;-31
2023/06/22 05:55:39;;;;;;;5.63;2.83;;;;;;;;;;5101091;28;20024;-27
2023/06/22 05:58:05;;;;;;;4.68;3.30;;;;;;;;;;5100807;28;20032;-30
2023/06/22 06:03:16;;;;;;;5.60;4.75;;;;;;;;;;5500220;22;20079;-24
2023/06/22 06:05:43;;;;;;;3.35;3.00;;;;;;;;;;5100572;28;20043;-24
2023/06/22 06:08:11;;;;;;;4.28;3.47;;;;;;;;;;5100607;28;20349;-23
2023/06/22 06:10:37;;;;;;;6.40;2.90;;;;;;;;;;5100355;28;20035;-24
2023/06/22 06:13:04;;;;;;;5.57;2.72;;;;;;;;;;5100341;28;20048;-23
2023/06/22 06:15:30;;;;;;;4.43;3.00;;;;;;;;;;5100269;28;20016;-24
2023/06/22 06:17:56;;;;;;;4.20;3.20;;;;;;;;;;5100229;28;20031;-24
2023/06/22 06:20:24;;;;;;;3.70;3.33;;;;;;;;;;5100237;28;20020;-23
2023/06/22 06:22:50;;;;;;;3.58;3.28;;;;;;;;;;5100335;28;20028;-22
2023/06/22 06:25:18;;;;;;;4.25;2.83;;;;;;;;;;5100417;28;20012;-24
2023/06/22 06:27:44;;;;;;;4.78;3.30;;;;;;;;;;5078112;28;20024;-25
2023/06/22 06:30:11;;;;;;;3.53;3.33;;;;;;;;;;5097465;28;20024;-23
2023/06/22 06:32:38;;;;;;;3.60;3.25;;;;;;;;;;5097201;28;20043;-24
2023/06/22 06:35:05;;;;;;;3.05;2.85;;;;;;;;;;5096933;28;20020;-24
2023/06/22 06:37:32;;;;;;;4.32;3.40;;;;;;;;;;5097167;28;20100;-24
2023/06/22 06:39:58;;;;;;;6.18;3.03;;;;;;;;;;5096915;28;20331;-24
2023/06/22 06:42:25;;;;;;;4.90;3.85;;;;;;;;;;5096913;28;20020;-23
2023/06/22 06:44:51;;;;;;;3.40;2.97;;;;;;;;;;5096939;28;20039;-24
2023/06/22 06:47:17;;;;;;;5.53;3.25;;;;;;;;;;5097178;28;20339;-24
2023/06/22 06:49:43;;;;;;;3.70;2.97;;;;;;;;;;5096898;28;20067;-24
2023/06/22 06:52:09;;;;;;;3.75;3.45;;;;;;;;;;5096944;28;20110;-24
2023/06/22 06:54:36;;;;;;;5.13;3.53;;;;;;;;;;5097027;28;20100;-24
2023/06/22 06:57:02;;;;;;;3.50;3.20;;;;;;;;;;5079357;28;20441;-23
2023/06/22 06:59:30;;;;;;;7.15;2.92;;;;;;;;;;5097343;28;20092;-24
2023/06/22 07:01:56;;;;;;;7.07;3.38;;;;;;;;;;5096680;28;20019;-24
2023/06/22 07:04:22;;;;;;;4.55;2.92;;;;;;;;;;5078896;28;20048;-25
2023/06/22 07:06:48;;;;;;;4.07;3.75;;;;;;;;;;5096668;28;20024;-23
2023/06/22 07:09:14;;;;;;;8.27;3.38;;;;;;;;;;5096566;28;20058;-25
2023/06/22 07:11:41;;;;;;;4.05;3.65;;;;;;;;;;5096522;28;20020;-24
2023/06/22 07:14:07;;;;;;;4.13;3.83;;;;;;;;;;5096687;28;20455;-24
2023/06/22 07:16:33;;;;;;;2.88;2.60;;;;;;;;;;5096471;28;20516;-24
2023/06/22 07:19:00;;;;;;;3.28;2.97;;;;;;;;;;5096379;28;20031;-24
2023/06/22 07:21:26;;;;;;;3.95;2.45;;;;;;;;;;5096237;28;20032;-26
2023/06/22 07:23:52;;;;;;;4.35;3.30;;;;;;;;;;5078551;28;20095;-24
2023/06/22 07:26:18;;;;;;;3.20;2.90;;;;;;;;;;5096166;28;20040;-24
2023/06/22 07:28:44;;;;;;;3.40;3.10;;;;;;;;;;5078231;28;20020;-25
2023/06/22 07:31:11;;;;;;;5.32;3.10;;;;;;;;;;5096143;28;20050;-23
2023/06/22 07:33:37;;;;;;;3.25;3.05;;;;;;;;;;5096399;28;20039;-25
2023/06/22 07:36:07;;;;;;;3.30;3.08;;;;;;;;;;5096638;28;20020;-25
2023/06/22 07:38:34;;;;;;;3.20;3.00;;;;;;;;;;5095949;28;20039;-24
2023/06/22 07:41:00;;;;;;;3.47;3.17;;;;;;;;;;5078225;28;20288;-23
2023/06/22 07:43:26;;;;;;;3.80;3.03;;;;;;;;;;5078095;28;20103;-24
2023/06/22 07:45:54;;;;;;;3.20;2.97;;;;;;;;;;5096116;28;20024;-23
2023/06/22 07:48:23;;;;;;;3.50;2.95;;;;;;;;;;5096453;28;20060;-22
2023/06/22 07:50:50;;;;;;;3.20;2.90;;;;;;;;;;5095996;28;20046;-25
2023/06/22 07:53:16;;;;;;;3.40;2.97;;;;;;;;;;5096325;28;20019;-25
2023/06/22 07:55:42;;;;;;;5.22;2.63;;;;;;;;;;5096234;28;20028;-25
2023/06/22 07:58:08;;;;;;;3.95;2.67;;;;;;;;;;5095620;28;20090;-25
2023/06/22 08:00:34;;;;;;;3.30;3.03;;;;;;;;;;5095382;28;20031;-24
2023/06/22 08:03:04;;;;;;;4.40;3.20;;;;;;;;;;5095098;28;20127;-23
2023/06/22 08:05:31;;;;;;;5.10;3.17;;;;;;;;;;5096092;28;20357;-25
2023/06/22 08:07:57;;;;;;;5.70;3.22;;;;;;;;;;5095209;28;20265;-23
2023/06/22 08:10:24;;;;;;;5.07;3.42;;;;;;;;;;5078409;28;20032;-24
2023/06/22 08:12:51;;;;;;;3.45;3.22;;;;;;;;;;5095334;28;20020;-24
2023/06/22 08:15:17;;;;;;;4.22;3.20;;;;;;;;;;5095304;28;20039;-23
2023/06/22 08:17:45;;;;;;;3.17;2.97;;;;;;;;;;5095174;28;20423;-25
2023/06/22 08:20:12;;;;;;;3.38;3.08;;;;;;;;;;5095139;28;20039;-24
2023/06/22 08:22:38;;;;;;;3.50;3.30;;;;;;;;;;5077319;28;20473;-26
2023/06/22 08:25:06;;;;;;;3.67;3.05;;;;;;;;;;5095201;28;20042;-24
2023/06/22 08:27:32;;;;;;;3.42;3.15;;;;;;;;;;5094923;28;20032;-24
2023/06/22 08:29:59;;;;;;;3.17;2.97;;;;;;;;;;5095064;28;20028;-24
2023/06/22 08:32:26;;;;;;;3.90;3.50;;;;;;;;;;5094751;28;20028;-24
2023/06/22 08:34:53;;;;;;;5.82;2.65;;;;;;;;;;5094944;28;20024;-24
2023/06/22 08:37:19;;;;;;;4.78;3.08;;;;;;;;;;5095250;28;20027;-25
2023/06/22 08:39:46;;;;;;;3.67;2.95;;;;;;;;;;5094781;28;20020;-24
2023/06/22 08:42:13;;;;;;;8.30;3.30;;;;;;;;;;5094768;28;20050;-27
2023/06/22 08:44:39;;;;;;;4.10;3.45;;;;;;;;;;5095045;28;20047;-22
2023/06/22 08:47:05;;;;;;;4.35;3.60;;;;;;;;;;5094910;28;20424;-24
2023/06/22 08:49:31;;;;;;;9.13;3.78;;;;;;;;;;5094243;28;20032;-25
2023/06/22 08:51:57;;;;;;;4.80;3.05;;;;;;;;;;5094720;28;20020;-25
2023/06/22 08:54:23;;;;;;;4.05;3.67;;;;;;;;;;5094740;28;20020;-24
2023/06/22 08:56:49;;;;;;;4.63;3.47;;;;;;;;;;5076873;28;20481;-25
2023/06/22 08:59:16;;;;;;;6.18;4.28;;;;;;;;;;5094931;28;20156;-23
2023/06/22 09:01:45;;;;;;;3.80;3.60;;;;;;;;;;5094561;28;20093;-24
2023/06/22 09:04:12;;;;;;;3.38;2.67;;;;;;;;;;5094394;28;20052;-24
2023/06/22 09:06:44;;;;;;;4.05;3.70;;;;;;;;;;5094825;28;20108;-24
2023/06/22 09:09:10;;;;;;;3.47;3.17;;;;;;;;;;5094278;28;20524;-22
2023/06/22 09:11:36;;;;;;;8.73;3.60;;;;;;;;;;5077281;28;20362;-26
2023/06/22 09:14:03;;;;;;;3.30;3.10;;;;;;;;;;5094756;28;20351;-25
2023/06/22 09:16:30;;;;;;;3.72;2.53;;;;;;;;;;5094721;28;20047;-25
2023/06/22 09:18:56;;;;;;;3.17;2.88;;;;;;;;;;5094923;28;20034;-23
2023/06/22 09:21:22;;;;;;;5.80;3.35;;;;;;;;;;5076663;28;20052;-24
2023/06/22 09:23:51;;;;;;;4.18;2.67;;;;;;;;;;5094705;28;20039;-24
2023/06/22 09:26:17;;;;;;;9.73;4.00;;;;;;;;;;5094642;28;20027;-24
2023/06/22 09:28:43;;;;;;;4.25;3.80;;;;;;;;;;5076522;28;20024;-24
2023/06/22 09:31:10;;;;;;;8.18;2.85;;;;;;;;;;5094331;28;20035;-24
2023/06/22 09:33:37;;;;;;;5.00;4.15;;;;;;;;;;5094177;28;20051;-24
2023/06/22 09:36:07;;;;;;;3.65;3.28;;;;;;;;;;5094026;28;20016;-22
2023/06/22 09:38:35;;;;;;;3.95;3.33;;;;;;;;;;5094175;28;20088;-22
2023/06/22 09:41:01;;;;;;;3.70;3.40;;;;;;;;;;5094583;28;20028;-23
2023/06/22 09:43:28;;;;;;;3.83;3.15;;;;;;;;;;5094220;28;20382;-26
2023/06/22 09:45:54;;;;;;;5.20;3.70;;;;;;;;;;5094162;28;20031;-24
2023/06/22 09:48:20;;;;;;;7.07;2.95;;;;;;;;;;5094205;28;20043;-23
2023/06/22 09:50:46;;;;;;;3.40;2.97;;;;;;;;;;5094194;28;20142;-24
2023/06/22 09:53:12;;;;;;;5.03;3.10;;;;;;;;;;5094414;28;20016;-24
2023/06/22 09:55:38;;;;;;;6.90;3.28;;;;;;;;;;5094143;28;20062;-24
2023/06/22 09:58:04;;;;;;;5.75;3.65;;;;;;;;;;5076166;28;20085;-24
2023/06/22 10:00:31;;;;;;;6.93;4.00;;;;;;;;;;5094389;28;20085;-24
2023/06/22 10:02:57;;;;;;;5.35;3.45;;;;;;;;;;5097744;28;20508;-24
2023/06/22 10:05:23;;;;;;;4.10;3.63;;;;;;;;;;5079837;28;20422;-24
2023/06/22 10:07:49;;;;;;;4.90;3.40;;;;;;;;;;5097781;28;20390;-23
2023/06/22 10:10:15;;;;;;;3.38;3.08;;;;;;;;;;5097708;28;20043;-23
2023/06/22 10:12:43;;;;;;;3.85;3.55;;;;;;;;;;5097527;28;20115;-24
2023/06/22 10:15:09;;;;;;;4.13;3.10;;;;;;;;;;5097770;28;20027;-23
2023/06/22 10:17:36;;;;;;;3.40;3.10;;;;;;;;;;5097633;28;20332;-25
2023/06/22 10:20:08;;;;;;;4.05;3.75;;;;;;;;;;5097294;28;20020;-24
2023/06/22 10:22:34;;;;;;;5.40;3.47;;;;;;;;;;5097509;28;20028;-24
2023/06/22 10:25:00;;;;;;;6.70;3.28;;;;;;;;;;5097425;28;20035;-25
2023/06/22 10:27:26;;;;;;;4.95;3.35;;;;;;;;;;5097257;28;20355;-24
2023/06/22 10:29:53;;;;;;;3.05;2.85;;;;;;;;;;5079261;28;20027;-23
2023/06/22 10:32:19;;;;;;;4.93;3.33;;;;;;;;;;5097328;28;20016;-24
2023/06/22 10:34:46;;;;;;;4.07;3.30;;;;;;;;;;5097265;28;20421;-22
2023/06/22 10:37:12;;;;;;;3.88;3.58;;;;;;;;;;5097175;28;20024;-24
2023/06/22 10:39:38;;;;;;;4.50;4.13;;;;;;;;;;5097728;28;20028;-24
2023/06/22 10:42:04;;;;;;;3.92;3.58;;;;;;;;;;5097070;28;20020;-24
2023/06/22 10:44:30;;;;;;;7.22;3.92;;;;;;;;;;5096925;28;20024;-24
2023/06/22 10:46:56;;;;;;;3.53;3.22;;;;;;;;;;5097063;28;20052;-25
2023/06/22 10:49:23;;;;;;;4.82;3.63;;;;;;;;;;5078942;28;20020;-24
2023/06/22 10:51:49;;;;;;;9.18;3.42;;;;;;;;;;5097617;28;20316;-24
2023/06/22 10:54:18;;;;;;;4.93;3.67;;;;;;;;;;5078874;28;20016;-22
2023/06/22 10:56:44;;;;;;;7.70;3.75;;;;;;;;;;5096686;28;20028;-22
2023/06/22 10:59:10;;;;;;;6.30;3.83;;;;;;;;;;5096931;28;20028;-23
2023/06/22 11:01:36;;;;;;;4.20;3.33;;;;;;;;;;5096858;28;20028;-24
2023/06/22 11:04:03;;;;;;;7.10;3.90;;;;;;;;;;5096347;28;20047;-24
2023/06/22 11:06:29;;;;;;;5.43;3.53;;;;;;;;;;5096549;28;20111;-25
2023/06/22 11:08:55;;;;;;;4.88;3.67;;;;;;;;;;5096696;28;20307;-24
2023/06/22 11:11:21;;;;;;;5.43;3.50;;;;;;;;;;5096278;28;20020;-23
2023/06/22 11:13:47;;;;;;;3.97;3.65;;;;;;;;;;5095629;28;20020;-24
2023/06/22 11:16:13;;;;;;;4.90;3.58;;;;;;;;;;5096247;28;20028;-24
2023/06/22 11:18:39;;;;;;;4.13;3.50;;;;;;;;;;5096302;28;20047;-24
2023/06/22 11:21:06;;;;;;;4.88;4.05;;;;;;;;;;5096324;28;20044;-24
2023/06/22 11:23:32;;;;;;;4.35;4.03;;;;;;;;;;5096020;28;20024;-24
2023/06/22 11:25:58;;;;;;;5.18;3.95;;;;;;;;;;5078113;28;20101;-22
2023/06/22 11:28:24;;;;;;;5.70;4.20;;;;;;;;;;5078157;28;20032;-26
2023/06/22 11:30:50;;;;;;;6.80;4.18;;;;;;;;;;5096124;28;20043;-20
2023/06/22 11:33:16;;;;;;;4.70;4.00;;;;;;;;;;5096228;28;20020;-19
2023/06/22 11:35:42;;;;;;;4.35;4.00;;;;;;;;;;5095942;28;20015;-19
2023/06/22 11:38:08;;;;;;;3.88;3.47;;;;;;;;;;5096231;28;20024;-21
2023/06/22 11:40:34;;;;;;;5.72;4.45;;;;;;;;;;5095921;28;20020;-19
2023/06/22 11:43:01;;;;;;;5.75;3.67;;;;;;;;;;5095832;28;20031;-21
2023/06/22 11:45:27;;;;;;;7.82;4.20;;;;;;;;;;5095839;28;20043;-25
2023/06/22 11:47:53;;;;;;;3.85;3.53;;;;;;;;;;5095764;28;20028;-21
2023/06/22 11:50:19;;;;;;;3.97;3.67;;;;;;;;;;5077983;28;20032;-21
2023/06/22 11:52:45;;;;;;;4.07;3.78;;;;;;;;;;5095921;28;20028;-22
2023/06/22 11:55:11;;;;;;;5.13;4.13;;;;;;;;;;5095891;28;20346;-22
2023/06/22 11:57:38;;;;;;;6.78;4.07;;;;;;;;;;5096023;28;20032;-22
2023/06/22 12:00:17;;;;;;;7.32;4.20;;;;;;;;;;5095570;28;20028;-23
2023/06/22 12:02:44;;;;;;;5.80;4.38;;;;;;;;;;5095270;28;20081;-22
2023/06/22 12:05:12;;;;;;;4.25;3.80;;;;;;;;;;5095649;28;20081;-23
2023/06/22 12:07:38;;;;;;;4.05;3.67;;;;;;;;;;5095607;28;20381;-23
2023/06/22 12:10:04;;;;;;;3.63;3.42;;;;;;;;;;5095339;28;20374;-22
2023/06/22 12:12:30;;;;;;;8.27;3.70;;;;;;;;;;5095850;28;20322;-22
2023/06/22 12:14:57;;;;;;;4.28;3.88;;;;;;;;;;5095294;28;20051;-22
2023/06/22 12:17:23;;;;;;;3.83;3.53;;;;;;;;;;5094949;28;20398;-25
2023/06/22 12:19:49;;;;;;;4.35;4.05;;;;;;;;;;5094960;28;20034;-22
2023/06/22 12:22:16;;;;;;;4.13;3.58;;;;;;;;;;5094956;28;20027;-22
2023/06/22 12:24:42;;;;;;;5.18;3.53;;;;;;;;;;5093897;28;20455;-23
2023/06/22 12:27:08;;;;;;;4.20;3.58;;;;;;;;;;5094967;28;20043;-23
2023/06/22 12:29:34;;;;;;;3.83;3.47;;;;;;;;;;5094746;28;20020;-22
2023/06/22 12:32:00;;;;;;;10.30;3.80;;;;;;;;;;5094540;28;20031;-24
2023/06/22 12:34:26;;;;;;;4.57;4.13;;;;;;;;;;5094826;28;20359;-23
2023/06/22 12:36:54;;;;;;;6.88;3.97;;;;;;;;;;5076879;28;20027;-23
2023/06/22 12:39:20;;;;;;;4.70;3.88;;;;;;;;;;5095024;28;20024;-22
2023/06/22 12:41:47;;;;;;;4.93;3.70;;;;;;;;;;5094813;28;20393;-29
2023/06/22 12:44:13;;;;;;;5.18;3.35;;;;;;;;;;5095353;28;20443;-22
2023/06/22 12:46:39;;;;;;;5.82;3.25;;;;;;;;;;5077838;28;20047;-25
2023/06/22 12:49:05;;;;;;;4.03;3.60;;;;;;;;;;5094975;28;20404;-22
2023/06/22 12:51:31;;;;;;;6.10;4.60;;;;;;;;;;5095159;28;20107;-22
2023/06/22 12:53:57;;;;;;;3.53;3.22;;;;;;;;;;5095058;28;20097;-23
2023/06/22 12:56:23;;;;;;;4.07;3.70;;;;;;;;;;5094794;28;20034;-25
2023/06/22 12:58:49;;;;;;;5.65;4.10;;;;;;;;;;5094752;28;20030;-23
2023/06/22 13:01:18;;;;;;;9.95;4.38;;;;;;;;;;5076813;28;20038;-22
2023/06/22 13:03:44;;;;;;;5.38;3.30;;;;;;;;;;5094280;28;20383;-22
2023/06/22 13:06:10;;;;;;;4.07;3.70;;;;;;;;;;5094505;28;20031;-23
2023/06/22 13:08:36;;;;;;;12.90;5.32;;;;;;;;;;5094372;28;20024;-22
2023/06/22 13:11:02;;;;;;;4.20;3.80;;;;;;;;;;5094509;28;20012;-22
2023/06/22 13:13:28;;;;;;;3.80;3.47;;;;;;;;;;5094685;28;20036;-23
2023/06/22 13:15:54;;;;;;;4.13;3.72;;;;;;;;;;5094935;28;20497;-23
2023/06/22 13:18:20;;;;;;;4.25;3.88;;;;;;;;;;5094433;28;20081;-23
2023/06/22 13:20:47;;;;;;;3.72;3.42;;;;;;;;;;5076646;28;20027;-23
2023/06/22 13:23:13;;;;;;;4.88;4.00;;;;;;;;;;5094539;28;20103;-22
2023/06/22 13:25:39;;;;;;;3.35;3.08;;;;;;;;;;5094497;28;20039;-24
2023/06/22 13:28:05;;;;;;;4.03;3.72;;;;;;;;;;5094775;28;20070;-23
2023/06/22 13:30:32;;;;;;;5.20;3.72;;;;;;;;;;5094606;28;20385;-22
2023/06/22 13:32:58;;;;;;;3.80;3.50;;;;;;;;;;5094544;28;20086;-22
2023/06/22 13:35:24;;;;;;;4.47;3.38;;;;;;;;;;5094860;28;20028;-25
2023/06/22 13:37:50;;;;;;;5.45;4.22;;;;;;;;;;5098643;28;20031;-22
2023/06/22 13:40:16;;;;;;;4.95;4.45;;;;;;;;;;5098468;28;20025;-22
2023/06/22 13:42:42;;;;;;;8.02;4.85;;;;;;;;;;5098303;28;20038;-23
2023/06/22 13:45:09;;;;;;;4.20;3.80;;;;;;;;;;5098687;28;20024;-23
2023/06/22 13:47:35;;;;;;;6.55;4.22;;;;;;;;;;5098473;28;20089;-22
2023/06/22 13:50:01;;;;;;;5.82;3.90;;;;;;;;;;5098433;28;20117;-22
2023/06/22 13:52:27;;;;;;;5.75;4.47;;;;;;;;;;5080372;28;20040;-23
2023/06/22 13:54:53;;;;;;;8.50;4.32;;;;;;;;;;5098447;28;20382;-22
2023/06/22 13:57:19;;;;;;;4.55;4.13;;;;;;;;;;5098399;28;20024;-22
2023/06/22 13:59:45;;;;;;;6.82;3.95;;;;;;;;;;5098254;28;20036;-22
2023/06/22 14:02:11;;;;;;;4.82;3.38;;;;;;;;;;5098153;28;20047;-23
2023/06/22 14:04:38;;;;;;;8.45;4.05;;;;;;;;;;5097819;28;20044;-22
2023/06/22 14:07:04;;;;;;;4.00;3.60;;;;;;;;;;5098121;28;20046;-23
2023/06/22 14:09:30;;;;;;;5.28;3.80;;;;;;;;;;5097965;28;20023;-23
2023/06/22 14:11:56;;;;;;;5.63;4.10;;;;;;;;;;5080867;28;20028;-22
2023/06/22 14:14:22;;;;;;;4.72;4.13;;;;;;;;;;5097905;28;20028;-23
2023/06/22 14:16:49;;;;;;;5.43;4.93;;;;;;;;;;5097652;28;20020;-23
2023/06/22 14:19:18;;;;;;;6.15;3.85;;;;;;;;;;5097503;28;20039;-23
2023/06/22 14:21:44;;;;;;;6.10;4.40;;;;;;;;;;5097751;28;20043;-23
2023/06/22 14:24:10;;;;;;;14.13;4.25;;;;;;;;;;5097388;28;20035;-23
2023/06/22 14:50:56;;;;;;;4.05;3.65;;;;;;;;;;5146169;23;20064;-23
2023/06/22 14:53:23;;;;;;;10.32;4.10;;;;;;;;;;5036909;28;20030;-23
2023/06/22 14:55:49;;;;;;;6.32;5.05;;;;;;;;;;5036826;28;20022;-23
2023/06/22 14:58:15;;;;;;;4.55;3.90;;;;;;;;;;5036736;28;20030;-22
2023/06/22 15:00:41;;;;;;;7.13;3.72;;;;;;;;;;5036775;28;20337;-23
2023/06/22 15:03:11;;;;;;;8.35;3.90;;;;;;;;;;5036808;28;20326;-21
2023/06/22 15:05:37;;;;;;;4.75;4.00;;;;;;;;;;5036741;28;20021;-23
2023/06/22 15:08:03;;;;;;;7.93;4.55;;;;;;;;;;5037540;28;20048;-23